sensor_id;sensor_type;location;lat;lon;timestamp;temperature;humidity
56869;DHT22;42754;0.000;0.000;2022-07-29T00:02:10;17.40;93.20
56869;DHT22;42754;0.000;0.000;2022-07-29T00:04:36;17.40;93.30
56869;DHT22;42754;0.000;0.000;2022-07-29T00:07:03;17.30;93.00
56869;DHT22;42754;0.000;0.000;2022-07-29T00:09:30;17.30;93.40
56869;DHT22;42754;0.000;0.000;2022-07-29T00:11:59;17.30;93.50
56869;DHT22;42754;0.000;0.000;2022-07-29T00:14:26;17.30;93.30
56869;DHT22;42754;0.000;0.000;2022-07-29T00:16:52;17.30;93.60
56869;DHT22;42754;0.000;0.000;2022-07-29T00:19:17;17.20;93.80
56869;DHT22;42754;0.000;0.000;2022-07-29T00:21:43;17.20;93.90
56869;DHT22;42754;0.000;0.000;2022-07-29T00:24:09;17.20;93.90
56869;DHT22;42754;0.000;0.000;2022-07-29T00:26:34;17.10;93.80
56869;DHT22;42754;0.000;0.000;2022-07-29T00:29:01;17.10;94.00
56869;DHT22;42754;0.000;0.000;2022-07-29T00:31:27;17.10;93.90
56869;DHT22;42754;0.000;0.000;2022-07-29T00:33:53;17.00;94.20
56869;DHT22;42754;0.000;0.000;2022-07-29T00:36:18;17.00;94.20
56869;DHT22;42754;0.000;0.000;2022-07-29T00:38:49;17.00;94.60
56869;DHT22;42754;0.000;0.000;2022-07-29T00:41:16;17.00;94.60
56869;DHT22;42754;0.000;0.000;2022-07-29T00:43:44;16.90;94.60
56869;DHT22;42754;0.000;0.000;2022-07-29T00:46:10;16.90;94.90
56869;DHT22;42754;0.000;0.000;2022-07-29T00:48:35;16.90;95.20
56869;DHT22;42754;0.000;0.000;2022-07-29T00:51:03;16.80;94.80
56869;DHT22;42754;0.000;0.000;2022-07-29T00:53:30;16.80;95.00
56869;DHT22;42754;0.000;0.000;2022-07-29T00:55:57;16.80;95.10
56869;DHT22;42754;0.000;0.000;2022-07-29T00:58:23;16.80;95.10
56869;DHT22;42754;0.000;0.000;2022-07-29T01:00:49;16.80;95.30
56869;DHT22;42754;0.000;0.000;2022-07-29T01:03:15;16.80;95.30
56869;DHT22;42754;0.000;0.000;2022-07-29T01:05:42;16.80;95.30
56869;DHT22;42754;0.000;0.000;2022-07-29T01:08:08;16.70;95.60
56869;DHT22;42754;0.000;0.000;2022-07-29T01:10:36;16.80;95.40
56869;DHT22;42754;0.000;0.000;2022-07-29T01:13:02;16.70;95.70
56869;DHT22;42754;0.000;0.000;2022-07-29T01:15:28;16.70;95.20
56869;DHT22;42754;0.000;0.000;2022-07-29T01:18:05;16.70;95.70
56869;DHT22;42754;0.000;0.000;2022-07-29T01:20:55;16.70;95.80
56869;DHT22;42754;0.000;0.000;2022-07-29T01:31:31;16.60;96.00
56869;DHT22;42754;0.000;0.000;2022-07-29T01:34:02;16.50;95.90
56869;DHT22;42754;0.000;0.000;2022-07-29T01:36:37;16.50;96.10
56869;DHT22;42754;0.000;0.000;2022-07-29T01:39:31;16.40;96.20
56869;DHT22;42754;0.000;0.000;2022-07-29T01:47:44;16.40;96.50
56869;DHT22;42754;0.000;0.000;2022-07-29T01:50:16;16.50;96.20
56869;DHT22;42754;0.000;0.000;2022-07-29T01:52:54;16.40;96.40
56869;DHT22;42754;0.000;0.000;2022-07-29T01:55:24;16.50;96.50
56869;DHT22;42754;0.000;0.000;2022-07-29T01:57:51;16.40;96.30
56869;DHT22;42754;0.000;0.000;2022-07-29T02:00:17;16.40;96.50
56869;DHT22;42754;0.000;0.000;2022-07-29T02:02:44;16.40;96.70
56869;DHT22;42754;0.000;0.000;2022-07-29T02:05:14;16.40;96.70
56869;DHT22;42754;0.000;0.000;2022-07-29T02:07:44;16.40;96.70
56869;DHT22;42754;0.000;0.000;2022-07-29T02:10:11;16.40;96.70
56869;DHT22;42754;0.000;0.000;2022-07-29T02:12:39;16.30;97.00
56869;DHT22;42754;0.000;0.000;2022-07-29T02:15:06;16.20;96.80
56869;DHT22;42754;0.000;0.000;2022-07-29T02:17:41;16.30;97.00
56869;DHT22;42754;0.000;0.000;2022-07-29T02:20:09;16.30;97.00
56869;DHT22;42754;0.000;0.000;2022-07-29T02:22:37;16.20;97.20
56869;DHT22;42754;0.000;0.000;2022-07-29T02:25:04;16.20;97.20
56869;DHT22;42754;0.000;0.000;2022-07-29T02:27:31;16.10;97.20
56869;DHT22;42754;0.000;0.000;2022-07-29T02:30:02;16.10;97.30
56869;DHT22;42754;0.000;0.000;2022-07-29T02:32:29;16.20;97.10
56869;DHT22;42754;0.000;0.000;2022-07-29T02:34:56;16.30;97.10
56869;DHT22;42754;0.000;0.000;2022-07-29T02:37:23;16.20;97.00
56869;DHT22;42754;0.000;0.000;2022-07-29T02:39:52;16.20;97.30
56869;DHT22;42754;0.000;0.000;2022-07-29T02:42:21;16.20;97.20
56869;DHT22;42754;0.000;0.000;2022-07-29T02:44:47;16.10;97.40
56869;DHT22;42754;0.000;0.000;2022-07-29T02:52:39;16.20;97.30
56869;DHT22;42754;0.000;0.000;2022-07-29T02:55:22;16.20;97.30
56869;DHT22;42754;0.000;0.000;2022-07-29T02:57:55;16.20;97.60
56869;DHT22;42754;0.000;0.000;2022-07-29T03:00:26;16.10;97.70
56869;DHT22;42754;0.000;0.000;2022-07-29T03:02:55;16.10;97.80
56869;DHT22;42754;0.000;0.000;2022-07-29T03:05:22;16.10;97.90
56869;DHT22;42754;0.000;0.000;2022-07-29T03:07:55;16.00;98.00
56869;DHT22;42754;0.000;0.000;2022-07-29T03:10:21;16.10;98.00
56869;DHT22;42754;0.000;0.000;2022-07-29T03:12:48;16.10;98.50
56869;DHT22;42754;0.000;0.000;2022-07-29T03:15:14;16.10;98.20
56869;DHT22;42754;0.000;0.000;2022-07-29T03:17:40;16.20;98.00
56869;DHT22;42754;0.000;0.000;2022-07-29T03:20:08;16.10;98.70
56869;DHT22;42754;0.000;0.000;2022-07-29T03:22:40;16.10;98.60
56869;DHT22;42754;0.000;0.000;2022-07-29T03:25:10;16.20;98.50
56869;DHT22;42754;0.000;0.000;2022-07-29T03:27:37;16.10;99.60
56869;DHT22;42754;0.000;0.000;2022-07-29T03:30:03;16.10;99.90
56869;DHT22;42754;0.000;0.000;2022-07-29T03:32:29;16.10;99.90
56869;DHT22;42754;0.000;0.000;2022-07-29T03:34:55;16.10;99.90
56869;DHT22;42754;0.000;0.000;2022-07-29T03:37:20;16.00;99.90
56869;DHT22;42754;0.000;0.000;2022-07-29T03:39:47;15.90;99.90
56869;DHT22;42754;0.000;0.000;2022-07-29T03:42:15;15.90;99.90
56869;DHT22;42754;0.000;0.000;2022-07-29T03:44:42;15.80;99.90
56869;DHT22;42754;0.000;0.000;2022-07-29T03:47:11;15.80;99.90
56869;DHT22;42754;0.000;0.000;2022-07-29T03:49:39;15.80;99.90
56869;DHT22;42754;0.000;0.000;2022-07-29T03:52:05;15.70;99.90
56869;DHT22;42754;0.000;0.000;2022-07-29T03:54:32;15.70;99.90
56869;DHT22;42754;0.000;0.000;2022-07-29T03:57:01;15.70;99.90
56869;DHT22;42754;0.000;0.000;2022-07-29T03:59:27;15.70;99.90
56869;DHT22;42754;0.000;0.000;2022-07-29T04:01:53;15.60;99.90
56869;DHT22;42754;0.000;0.000;2022-07-29T04:04:21;15.50;99.90
56869;DHT22;42754;0.000;0.000;2022-07-29T04:06:47;15.50;99.90
56869;DHT22;42754;0.000;0.000;2022-07-29T04:09:14;15.50;99.90
56869;DHT22;42754;0.000;0.000;2022-07-29T04:11:41;15.40;99.90
56869;DHT22;42754;0.000;0.000;2022-07-29T04:14:07;15.40;99.90
56869;DHT22;42754;0.000;0.000;2022-07-29T04:16:32;15.30;99.90
56869;DHT22;42754;0.000;0.000;2022-07-29T04:18:58;15.30;99.90
56869;DHT22;42754;0.000;0.000;2022-07-29T04:21:24;15.30;99.90
56869;DHT22;42754;0.000;0.000;2022-07-29T04:23:51;15.40;99.90
56869;DHT22;42754;0.000;0.000;2022-07-29T04:26:18;15.40;99.90
56869;DHT22;42754;0.000;0.000;2022-07-29T04:28:45;15.40;99.90
56869;DHT22;42754;0.000;0.000;2022-07-29T04:31:12;15.50;99.90
56869;DHT22;42754;0.000;0.000;2022-07-29T04:33:39;15.40;99.90
56869;DHT22;42754;0.000;0.000;2022-07-29T04:36:05;15.40;99.90
56869;DHT22;42754;0.000;0.000;2022-07-29T04:38:30;15.30;99.90
56869;DHT22;42754;0.000;0.000;2022-07-29T04:40:56;15.40;99.90
56869;DHT22;42754;0.000;0.000;2022-07-29T04:43:22;15.40;99.90
56869;DHT22;42754;0.000;0.000;2022-07-29T04:45:47;15.40;99.90
56869;DHT22;42754;0.000;0.000;2022-07-29T04:48:13;15.40;99.90
56869;DHT22;42754;0.000;0.000;2022-07-29T04:50:39;15.40;99.90
56869;DHT22;42754;0.000;0.000;2022-07-29T04:53:06;15.40;99.90
56869;DHT22;42754;0.000;0.000;2022-07-29T04:55:37;15.40;99.90
56869;DHT22;42754;0.000;0.000;2022-07-29T04:58:03;15.40;99.90
56869;DHT22;42754;0.000;0.000;2022-07-29T05:00:30;15.40;99.90
56869;DHT22;42754;0.000;0.000;2022-07-29T05:02:55;15.40;99.90
56869;DHT22;42754;0.000;0.000;2022-07-29T05:05:22;15.40;99.90
56869;DHT22;42754;0.000;0.000;2022-07-29T05:07:47;15.30;99.90
56869;DHT22;42754;0.000;0.000;2022-07-29T05:10:19;15.30;99.90
56869;DHT22;42754;0.000;0.000;2022-07-29T05:12:45;15.30;99.90
56869;DHT22;42754;0.000;0.000;2022-07-29T05:15:11;15.30;99.90
56869;DHT22;42754;0.000;0.000;2022-07-29T05:17:37;15.30;99.90
56869;DHT22;42754;0.000;0.000;2022-07-29T05:20:03;15.30;99.90
56869;DHT22;42754;0.000;0.000;2022-07-29T05:22:29;15.30;99.90
56869;DHT22;42754;0.000;0.000;2022-07-29T05:24:55;15.30;99.90
56869;DHT22;42754;0.000;0.000;2022-07-29T05:27:20;15.40;99.90
56869;DHT22;42754;0.000;0.000;2022-07-29T05:29:46;15.40;99.90
56869;DHT22;42754;0.000;0.000;2022-07-29T05:32:14;15.40;99.90
56869;DHT22;42754;0.000;0.000;2022-07-29T05:34:40;15.40;99.90
56869;DHT22;42754;0.000;0.000;2022-07-29T05:37:06;15.40;99.90
56869;DHT22;42754;0.000;0.000;2022-07-29T05:39:33;15.40;99.90
56869;DHT22;42754;0.000;0.000;2022-07-29T05:41:58;15.40;99.90
56869;DHT22;42754;0.000;0.000;2022-07-29T05:44:24;15.40;99.90
56869;DHT22;42754;0.000;0.000;2022-07-29T05:46:50;15.50;99.90
56869;DHT22;42754;0.000;0.000;2022-07-29T05:49:15;15.60;99.90
56869;DHT22;42754;0.000;0.000;2022-07-29T05:51:41;15.60;99.90
56869;DHT22;42754;0.000;0.000;2022-07-29T05:54:07;15.70;99.90
56869;DHT22;42754;0.000;0.000;2022-07-29T05:56:32;15.70;99.90
56869;DHT22;42754;0.000;0.000;2022-07-29T05:58:58;15.70;99.90
56869;DHT22;42754;0.000;0.000;2022-07-29T06:01:23;15.70;99.90
56869;DHT22;42754;0.000;0.000;2022-07-29T06:03:49;15.80;99.90
56869;DHT22;42754;0.000;0.000;2022-07-29T06:06:15;15.80;99.90
56869;DHT22;42754;0.000;0.000;2022-07-29T06:08:41;15.70;99.90
56869;DHT22;42754;0.000;0.000;2022-07-29T06:11:06;15.80;99.90
56869;DHT22;42754;0.000;0.000;2022-07-29T06:13:33;15.80;99.90
56869;DHT22;42754;0.000;0.000;2022-07-29T06:15:59;15.80;99.90
56869;DHT22;42754;0.000;0.000;2022-07-29T06:18:25;15.80;99.90
56869;DHT22;42754;0.000;0.000;2022-07-29T06:20:51;15.80;99.90
56869;DHT22;42754;0.000;0.000;2022-07-29T06:23:19;15.80;99.90
56869;DHT22;42754;0.000;0.000;2022-07-29T06:25:45;15.90;99.90
56869;DHT22;42754;0.000;0.000;2022-07-29T06:28:10;15.90;99.90
56869;DHT22;42754;0.000;0.000;2022-07-29T06:30:36;15.80;99.90
56869;DHT22;42754;0.000;0.000;2022-07-29T06:33:02;15.80;99.90
56869;DHT22;42754;0.000;0.000;2022-07-29T06:35:28;15.90;99.90
56869;DHT22;42754;0.000;0.000;2022-07-29T06:37:54;15.90;99.90
56869;DHT22;42754;0.000;0.000;2022-07-29T06:40:19;15.90;99.90
56869;DHT22;42754;0.000;0.000;2022-07-29T06:43:04;15.90;99.90
56869;DHT22;42754;0.000;0.000;2022-07-29T06:45:29;16.00;99.90
56869;DHT22;42754;0.000;0.000;2022-07-29T06:47:55;15.90;99.90
56869;DHT22;42754;0.000;0.000;2022-07-29T06:50:21;15.90;99.90
56869;DHT22;42754;0.000;0.000;2022-07-29T06:52:47;16.00;99.90
56869;DHT22;42754;0.000;0.000;2022-07-29T06:55:14;16.00;99.90
56869;DHT22;42754;0.000;0.000;2022-07-29T06:57:39;16.00;99.90
56869;DHT22;42754;0.000;0.000;2022-07-29T07:00:06;16.10;99.90
56869;DHT22;42754;0.000;0.000;2022-07-29T07:02:32;16.10;99.90
56869;DHT22;42754;0.000;0.000;2022-07-29T07:04:58;16.20;99.90
56869;DHT22;42754;0.000;0.000;2022-07-29T07:07:24;16.20;99.90
56869;DHT22;42754;0.000;0.000;2022-07-29T07:09:50;16.30;99.90
56869;DHT22;42754;0.000;0.000;2022-07-29T07:12:15;16.40;99.90
56869;DHT22;42754;0.000;0.000;2022-07-29T07:14:41;16.50;99.90
56869;DHT22;42754;0.000;0.000;2022-07-29T07:17:07;16.50;99.90
56869;DHT22;42754;0.000;0.000;2022-07-29T07:19:33;16.50;99.90
56869;DHT22;42754;0.000;0.000;2022-07-29T07:21:58;16.50;99.90
56869;DHT22;42754;0.000;0.000;2022-07-29T07:24:24;16.60;99.90
56869;DHT22;42754;0.000;0.000;2022-07-29T07:26:50;16.60;99.90
56869;DHT22;42754;0.000;0.000;2022-07-29T07:29:16;16.50;99.90
56869;DHT22;42754;0.000;0.000;2022-07-29T07:31:42;16.50;99.90
56869;DHT22;42754;0.000;0.000;2022-07-29T07:34:08;16.60;99.90
56869;DHT22;42754;0.000;0.000;2022-07-29T07:36:34;16.70;99.90
56869;DHT22;42754;0.000;0.000;2022-07-29T07:39:00;16.60;99.90
56869;DHT22;42754;0.000;0.000;2022-07-29T07:41:26;16.60;99.90
56869;DHT22;42754;0.000;0.000;2022-07-29T07:43:51;16.60;99.90
56869;DHT22;42754;0.000;0.000;2022-07-29T07:46:17;16.60;99.90
56869;DHT22;42754;0.000;0.000;2022-07-29T07:48:43;16.50;99.90
56869;DHT22;42754;0.000;0.000;2022-07-29T07:51:08;16.50;99.90
56869;DHT22;42754;0.000;0.000;2022-07-29T07:53:34;16.50;99.90
56869;DHT22;42754;0.000;0.000;2022-07-29T07:56:00;16.50;99.90
56869;DHT22;42754;0.000;0.000;2022-07-29T07:58:26;16.50;99.90
56869;DHT22;42754;0.000;0.000;2022-07-29T08:00:51;16.60;99.90
56869;DHT22;42754;0.000;0.000;2022-07-29T08:03:17;16.60;99.90
56869;DHT22;42754;0.000;0.000;2022-07-29T08:05:43;16.60;99.90
56869;DHT22;42754;0.000;0.000;2022-07-29T08:08:10;16.60;99.90
56869;DHT22;42754;0.000;0.000;2022-07-29T08:10:36;16.70;99.90
56869;DHT22;42754;0.000;0.000;2022-07-29T08:13:22;16.70;99.90
56869;DHT22;42754;0.000;0.000;2022-07-29T08:15:48;16.70;99.90
56869;DHT22;42754;0.000;0.000;2022-07-29T08:18:28;16.70;99.90
56869;DHT22;42754;0.000;0.000;2022-07-29T08:20:54;16.70;99.90
56869;DHT22;42754;0.000;0.000;2022-07-29T08:23:21;16.80;99.90
56869;DHT22;42754;0.000;0.000;2022-07-29T08:25:48;16.80;99.90
56869;DHT22;42754;0.000;0.000;2022-07-29T08:28:14;16.90;99.90
56869;DHT22;42754;0.000;0.000;2022-07-29T08:30:39;16.90;99.90
56869;DHT22;42754;0.000;0.000;2022-07-29T08:33:05;17.00;99.90
56869;DHT22;42754;0.000;0.000;2022-07-29T08:35:31;17.10;99.90
56869;DHT22;42754;0.000;0.000;2022-07-29T08:37:56;17.20;99.90
56869;DHT22;42754;0.000;0.000;2022-07-29T08:40:22;17.30;99.90
56869;DHT22;42754;0.000;0.000;2022-07-29T08:42:49;17.50;99.90
56869;DHT22;42754;0.000;0.000;2022-07-29T08:45:15;17.60;99.90
56869;DHT22;42754;0.000;0.000;2022-07-29T08:47:41;17.60;99.90
56869;DHT22;42754;0.000;0.000;2022-07-29T08:50:09;17.60;99.90
56869;DHT22;42754;0.000;0.000;2022-07-29T08:52:40;17.60;99.90
56869;DHT22;42754;0.000;0.000;2022-07-29T08:55:07;17.60;99.90
56869;DHT22;42754;0.000;0.000;2022-07-29T08:57:34;17.70;99.90
56869;DHT22;42754;0.000;0.000;2022-07-29T09:00:01;17.70;99.90
56869;DHT22;42754;0.000;0.000;2022-07-29T09:02:29;17.80;99.90
56869;DHT22;42754;0.000;0.000;2022-07-29T09:05:00;17.70;99.90
56869;DHT22;42754;0.000;0.000;2022-07-29T09:07:26;17.70;99.90
56869;DHT22;42754;0.000;0.000;2022-07-29T09:09:52;17.80;99.90
56869;DHT22;42754;0.000;0.000;2022-07-29T09:12:18;17.80;99.90
56869;DHT22;42754;0.000;0.000;2022-07-29T09:14:44;17.70;99.90
56869;DHT22;42754;0.000;0.000;2022-07-29T09:17:10;17.80;99.90
56869;DHT22;42754;0.000;0.000;2022-07-29T09:19:37;17.80;99.90
56869;DHT22;42754;0.000;0.000;2022-07-29T09:22:06;17.80;99.90
56869;DHT22;42754;0.000;0.000;2022-07-29T09:24:45;17.70;99.90
56869;DHT22;42754;0.000;0.000;2022-07-29T09:27:21;17.70;99.90
56869;DHT22;42754;0.000;0.000;2022-07-29T09:32:55;17.70;99.90
56869;DHT22;42754;0.000;0.000;2022-07-29T09:35:23;17.70;99.90
56869;DHT22;42754;0.000;0.000;2022-07-29T09:37:50;17.80;99.90
56869;DHT22;42754;0.000;0.000;2022-07-29T09:42:47;17.80;99.90
56869;DHT22;42754;0.000;0.000;2022-07-29T09:47:54;17.90;99.90
56869;DHT22;42754;0.000;0.000;2022-07-29T09:50:35;18.00;99.90
56869;DHT22;42754;0.000;0.000;2022-07-29T09:53:00;18.10;99.90
56869;DHT22;42754;0.000;0.000;2022-07-29T09:55:26;18.20;99.90
56869;DHT22;42754;0.000;0.000;2022-07-29T09:57:51;18.30;99.90
56869;DHT22;42754;0.000;0.000;2022-07-29T10:00:19;18.30;99.90
56869;DHT22;42754;0.000;0.000;2022-07-29T10:02:47;18.30;99.90
56869;DHT22;42754;0.000;0.000;2022-07-29T10:07:54;18.30;99.90
56869;DHT22;42754;0.000;0.000;2022-07-29T10:10:31;18.40;99.90
56869;DHT22;42754;0.000;0.000;2022-07-29T10:13:06;18.50;99.90
56869;DHT22;42754;0.000;0.000;2022-07-29T10:15:34;18.50;99.90
56869;DHT22;42754;0.000;0.000;2022-07-29T10:18:08;18.60;99.90
56869;DHT22;42754;0.000;0.000;2022-07-29T10:20:35;18.70;99.90
56869;DHT22;42754;0.000;0.000;2022-07-29T10:23:00;18.80;99.90
56869;DHT22;42754;0.000;0.000;2022-07-29T10:25:26;18.80;99.90
56869;DHT22;42754;0.000;0.000;2022-07-29T10:27:53;19.00;99.90
56869;DHT22;42754;0.000;0.000;2022-07-29T10:30:21;19.20;99.90
56869;DHT22;42754;0.000;0.000;2022-07-29T10:40:50;20.70;99.10
56869;DHT22;42754;0.000;0.000;2022-07-29T10:43:40;20.60;98.50
56869;DHT22;42754;0.000;0.000;2022-07-29T10:46:06;20.40;98.80
56869;DHT22;42754;0.000;0.000;2022-07-29T10:48:32;20.30;98.80
56869;DHT22;42754;0.000;0.000;2022-07-29T10:50:59;20.20;98.40
56869;DHT22;42754;0.000;0.000;2022-07-29T10:53:48;20.40;98.30
56869;DHT22;42754;0.000;0.000;2022-07-29T11:01:43;20.60;97.40
56869;DHT22;42754;0.000;0.000;2022-07-29T11:04:09;21.30;97.90
56869;DHT22;42754;0.000;0.000;2022-07-29T11:07:13;22.50;94.70
56869;DHT22;42754;0.000;0.000;2022-07-29T11:09:41;23.50;93.90
56869;DHT22;42754;0.000;0.000;2022-07-29T11:15:14;24.60;92.10
56869;DHT22;42754;0.000;0.000;2022-07-29T11:23:31;25.30;90.20
56869;DHT22;42754;0.000;0.000;2022-07-29T11:28:50;25.50;88.00
56869;DHT22;42754;0.000;0.000;2022-07-29T11:31:43;25.90;87.40
56869;DHT22;42754;0.000;0.000;2022-07-29T11:34:24;25.80;89.90
56869;DHT22;42754;0.000;0.000;2022-07-29T11:39:46;26.10;87.60
56869;DHT22;42754;0.000;0.000;2022-07-29T11:44:57;25.70;86.10
56869;DHT22;42754;0.000;0.000;2022-07-29T11:47:27;25.10;88.00
56869;DHT22;42754;0.000;0.000;2022-07-29T11:49:59;24.60;88.50
56869;DHT22;42754;0.000;0.000;2022-07-29T11:52:46;24.10;89.80
56869;DHT22;42754;0.000;0.000;2022-07-29T11:55:18;24.00;90.20
56869;DHT22;42754;0.000;0.000;2022-07-29T12:00:30;24.30;87.50
56869;DHT22;42754;0.000;0.000;2022-07-29T12:02:57;24.00;88.30
56869;DHT22;42754;0.000;0.000;2022-07-29T12:05:40;24.70;88.70
56869;DHT22;42754;0.000;0.000;2022-07-29T12:08:08;24.70;87.50
56869;DHT22;42754;0.000;0.000;2022-07-29T12:10:36;24.30;88.20
56869;DHT22;42754;0.000;0.000;2022-07-29T12:13:02;24.10;88.00
56869;DHT22;42754;0.000;0.000;2022-07-29T12:15:28;23.80;87.60
56869;DHT22;42754;0.000;0.000;2022-07-29T12:17:53;23.70;88.50
56869;DHT22;42754;0.000;0.000;2022-07-29T12:20:25;23.70;89.40
56869;DHT22;42754;0.000;0.000;2022-07-29T12:22:51;23.70;88.30
56869;DHT22;42754;0.000;0.000;2022-07-29T12:25:21;23.70;88.20
56869;DHT22;42754;0.000;0.000;2022-07-29T12:27:47;23.70;88.30
56869;DHT22;42754;0.000;0.000;2022-07-29T12:30:39;23.90;88.50
56869;DHT22;42754;0.000;0.000;2022-07-29T12:35:38;24.30;86.70
56869;DHT22;42754;0.000;0.000;2022-07-29T12:38:03;24.30;88.30
56869;DHT22;42754;0.000;0.000;2022-07-29T12:40:30;24.30;88.50
56869;DHT22;42754;0.000;0.000;2022-07-29T12:45:32;24.90;87.30
56869;DHT22;42754;0.000;0.000;2022-07-29T12:47:57;25.60;85.70
56869;DHT22;42754;0.000;0.000;2022-07-29T12:50:23;26.10;84.30
56869;DHT22;42754;0.000;0.000;2022-07-29T12:52:50;26.20;83.70
56869;DHT22;42754;0.000;0.000;2022-07-29T12:55:16;26.30;82.90
56869;DHT22;42754;0.000;0.000;2022-07-29T12:58:01;26.30;83.90
56869;DHT22;42754;0.000;0.000;2022-07-29T13:00:27;26.00;83.60
56869;DHT22;42754;0.000;0.000;2022-07-29T13:02:57;25.80;83.30
56869;DHT22;42754;0.000;0.000;2022-07-29T13:05:44;25.70;81.60
56869;DHT22;42754;0.000;0.000;2022-07-29T13:08:14;26.20;81.50
56869;DHT22;42754;0.000;0.000;2022-07-29T13:10:41;26.70;81.50
56869;DHT22;42754;0.000;0.000;2022-07-29T13:13:12;27.20;79.20
56869;DHT22;42754;0.000;0.000;2022-07-29T13:15:44;27.20;78.90
56869;DHT22;42754;0.000;0.000;2022-07-29T13:18:35;27.00;79.90
56869;DHT22;42754;0.000;0.000;2022-07-29T13:21:13;26.70;80.60
56869;DHT22;42754;0.000;0.000;2022-07-29T13:23:39;26.20;81.30
56869;DHT22;42754;0.000;0.000;2022-07-29T13:26:06;26.00;80.90
56869;DHT22;42754;0.000;0.000;2022-07-29T13:28:32;26.40;78.60
56869;DHT22;42754;0.000;0.000;2022-07-29T13:30:58;27.10;77.70
56869;DHT22;42754;0.000;0.000;2022-07-29T13:33:23;27.20;77.40
56869;DHT22;42754;0.000;0.000;2022-07-29T13:35:49;27.20;76.30
56869;DHT22;42754;0.000;0.000;2022-07-29T13:38:15;27.20;76.40
56869;DHT22;42754;0.000;0.000;2022-07-29T13:40:41;27.10;76.70
56869;DHT22;42754;0.000;0.000;2022-07-29T13:43:11;26.80;77.20
56869;DHT22;42754;0.000;0.000;2022-07-29T13:45:37;26.40;78.00
56869;DHT22;42754;0.000;0.000;2022-07-29T13:48:03;26.50;77.30
56869;DHT22;42754;0.000;0.000;2022-07-29T13:50:28;26.90;76.40
56869;DHT22;42754;0.000;0.000;2022-07-29T13:52:56;26.80;75.50
56869;DHT22;42754;0.000;0.000;2022-07-29T13:55:21;26.50;76.10
56869;DHT22;42754;0.000;0.000;2022-07-29T13:57:48;26.20;76.40
56869;DHT22;42754;0.000;0.000;2022-07-29T14:00:14;26.30;77.50
56869;DHT22;42754;0.000;0.000;2022-07-29T14:02:47;26.60;77.90
56869;DHT22;42754;0.000;0.000;2022-07-29T14:05:13;26.90;79.90
56869;DHT22;42754;0.000;0.000;2022-07-29T14:07:39;27.00;78.50
56869;DHT22;42754;0.000;0.000;2022-07-29T14:10:06;26.90;76.50
56869;DHT22;42754;0.000;0.000;2022-07-29T14:12:32;26.90;78.60
56869;DHT22;42754;0.000;0.000;2022-07-29T14:14:58;26.90;75.90
56869;DHT22;42754;0.000;0.000;2022-07-29T14:17:23;26.90;76.30
56869;DHT22;42754;0.000;0.000;2022-07-29T14:19:49;26.90;77.10
56869;DHT22;42754;0.000;0.000;2022-07-29T14:22:16;26.70;76.20
56869;DHT22;42754;0.000;0.000;2022-07-29T14:24:44;26.70;76.30
56869;DHT22;42754;0.000;0.000;2022-07-29T14:27:10;26.70;75.30
56869;DHT22;42754;0.000;0.000;2022-07-29T14:29:36;26.80;75.80
56869;DHT22;42754;0.000;0.000;2022-07-29T14:32:01;26.50;74.80
56869;DHT22;42754;0.000;0.000;2022-07-29T14:34:28;26.70;75.60
56869;DHT22;42754;0.000;0.000;2022-07-29T14:36:54;26.70;76.70
56869;DHT22;42754;0.000;0.000;2022-07-29T14:39:21;26.70;75.50
56869;DHT22;42754;0.000;0.000;2022-07-29T14:41:49;26.80;75.90
56869;DHT22;42754;0.000;0.000;2022-07-29T14:44:15;26.80;75.30
56869;DHT22;42754;0.000;0.000;2022-07-29T14:46:40;26.70;74.70
56869;DHT22;42754;0.000;0.000;2022-07-29T14:49:06;26.80;75.60
56869;DHT22;42754;0.000;0.000;2022-07-29T14:51:32;26.60;75.30
56869;DHT22;42754;0.000;0.000;2022-07-29T14:53:58;26.40;75.10
56869;DHT22;42754;0.000;0.000;2022-07-29T14:56:23;26.40;75.30
56869;DHT22;42754;0.000;0.000;2022-07-29T14:58:49;26.10;76.00
56869;DHT22;42754;0.000;0.000;2022-07-29T15:01:14;26.40;75.20
56869;DHT22;42754;0.000;0.000;2022-07-29T15:03:40;26.70;75.50
56869;DHT22;42754;0.000;0.000;2022-07-29T15:06:06;26.40;74.60
56869;DHT22;42754;0.000;0.000;2022-07-29T15:08:31;26.10;75.20
56869;DHT22;42754;0.000;0.000;2022-07-29T15:10:57;25.70;75.50
56869;DHT22;42754;0.000;0.000;2022-07-29T15:13:27;25.50;76.10
56869;DHT22;42754;0.000;0.000;2022-07-29T15:15:52;25.60;76.00
56869;DHT22;42754;0.000;0.000;2022-07-29T15:18:18;25.50;76.00
56869;DHT22;42754;0.000;0.000;2022-07-29T15:20:44;25.30;76.30
56869;DHT22;42754;0.000;0.000;2022-07-29T15:23:12;25.40;76.50
56869;DHT22;42754;0.000;0.000;2022-07-29T15:25:39;25.40;76.50
56869;DHT22;42754;0.000;0.000;2022-07-29T15:28:05;25.30;78.40
56869;DHT22;42754;0.000;0.000;2022-07-29T15:30:34;25.20;77.90
56869;DHT22;42754;0.000;0.000;2022-07-29T15:33:08;25.20;78.70
56869;DHT22;42754;0.000;0.000;2022-07-29T15:35:37;25.00;77.40
56869;DHT22;42754;0.000;0.000;2022-07-29T15:38:03;24.90;77.30
56869;DHT22;42754;0.000;0.000;2022-07-29T15:40:28;25.10;77.00
56869;DHT22;42754;0.000;0.000;2022-07-29T15:42:54;25.50;76.40
56869;DHT22;42754;0.000;0.000;2022-07-29T15:45:20;25.70;77.40
56869;DHT22;42754;0.000;0.000;2022-07-29T15:47:45;25.80;76.00
56869;DHT22;42754;0.000;0.000;2022-07-29T15:50:11;25.80;76.80
56869;DHT22;42754;0.000;0.000;2022-07-29T15:52:41;25.80;75.80
56869;DHT22;42754;0.000;0.000;2022-07-29T15:55:07;25.90;76.00
56869;DHT22;42754;0.000;0.000;2022-07-29T15:57:32;25.90;77.00
56869;DHT22;42754;0.000;0.000;2022-07-29T15:59:58;25.90;75.90
56869;DHT22;42754;0.000;0.000;2022-07-29T16:02:24;25.40;77.20
56869;DHT22;42754;0.000;0.000;2022-07-29T16:04:49;25.30;77.20
56869;DHT22;42754;0.000;0.000;2022-07-29T16:07:16;25.10;77.80
56869;DHT22;42754;0.000;0.000;2022-07-29T16:09:42;24.90;77.30
56869;DHT22;42754;0.000;0.000;2022-07-29T16:12:08;24.80;78.00
56869;DHT22;42754;0.000;0.000;2022-07-29T16:14:34;24.80;78.20
56869;DHT22;42754;0.000;0.000;2022-07-29T16:17:00;24.80;78.00
56869;DHT22;42754;0.000;0.000;2022-07-29T16:19:28;24.60;77.50
56869;DHT22;42754;0.000;0.000;2022-07-29T16:21:54;24.50;78.10
56869;DHT22;42754;0.000;0.000;2022-07-29T16:24:20;24.50;78.50
56869;DHT22;42754;0.000;0.000;2022-07-29T16:26:45;24.40;79.10
56869;DHT22;42754;0.000;0.000;2022-07-29T16:29:11;24.30;78.90
56869;DHT22;42754;0.000;0.000;2022-07-29T16:31:36;24.30;79.30
56869;DHT22;42754;0.000;0.000;2022-07-29T16:34:02;24.20;80.20
56869;DHT22;42754;0.000;0.000;2022-07-29T16:36:33;24.20;79.50
56869;DHT22;42754;0.000;0.000;2022-07-29T16:38:58;24.20;79.20
56869;DHT22;42754;0.000;0.000;2022-07-29T16:41:24;24.20;79.60
56869;DHT22;42754;0.000;0.000;2022-07-29T16:43:50;24.20;80.20
56869;DHT22;42754;0.000;0.000;2022-07-29T16:46:15;24.20;79.90
56869;DHT22;42754;0.000;0.000;2022-07-29T16:48:41;24.10;80.20
56869;DHT22;42754;0.000;0.000;2022-07-29T16:51:06;24.10;79.70
56869;DHT22;42754;0.000;0.000;2022-07-29T16:53:33;24.10;79.60
56869;DHT22;42754;0.000;0.000;2022-07-29T16:55:58;24.10;80.00
56869;DHT22;42754;0.000;0.000;2022-07-29T16:58:24;24.10;79.70